createdAt,value
2023-02-28T00:01:29.922Z,102522.00
2023-02-28T00:03:58.139Z,102515.16
2023-02-28T00:06:26.157Z,102526.91
2023-02-28T00:08:53.973Z,102521.56
2023-02-28T00:11:23.832Z,102521.88
2023-02-28T00:13:51.712Z,102525.09
2023-02-28T00:16:21.830Z,102516.63
2023-02-28T00:18:50.555Z,102524.13
2023-02-28T00:21:19.884Z,102516.19
2023-02-28T00:23:50.701Z,102516.31
2023-02-28T00:26:21.247Z,102522.38
2023-02-28T00:28:51.020Z,102512.13
2023-02-28T00:31:18.945Z,102519.19
2023-02-28T00:33:47.676Z,102511.59
2023-02-28T00:36:15.456Z,102514.47
2023-02-28T00:38:43.217Z,102514.47
2023-02-28T00:41:11.621Z,102505.91
2023-02-28T00:43:40.798Z,102509.53
2023-02-28T00:46:11.672Z,102505.91
2023-02-28T00:48:39.396Z,102509.84
2023-02-28T00:51:07.574Z,102506.94
2023-02-28T00:53:35.527Z,102510.44
2023-02-28T00:56:05.033Z,102507.78
2023-02-28T00:58:35.142Z,102507.16
2023-02-28T01:01:03.004Z,102516.88
2023-02-28T01:03:32.308Z,102508.09
2023-02-28T01:06:00.397Z,102510.97
2023-02-28T01:08:28.479Z,102515.03
2023-02-28T01:10:56.281Z,102525.28
2023-02-28T01:13:24.602Z,102520.31
2023-02-28T01:15:54.585Z,102519.47
2023-02-28T01:18:23.791Z,102521.22
2023-02-28T01:20:53.278Z,102514.13
2023-02-28T01:23:22.595Z,102512.97
2023-02-28T01:25:50.286Z,102521.84
2023-02-28T01:28:18.163Z,102519.09
2023-02-28T01:30:49.755Z,102524.44
2023-02-28T01:33:17.517Z,102522.91
2023-02-28T01:35:45.269Z,102516.25
2023-02-28T01:38:22.043Z,102518.16
2023-02-28T01:40:50.711Z,102512.81
2023-02-28T01:43:25.429Z,102517.41
2023-02-28T01:45:54.272Z,102506.56
2023-02-28T01:48:27.021Z,102507.53
2023-02-28T01:50:56.677Z,102515.56
2023-02-28T01:53:31.502Z,102515.63
2023-02-28T01:55:59.537Z,102514.00
2023-02-28T01:58:27.462Z,102526.28
2023-02-28T02:00:56.036Z,102524.00
2023-02-28T02:03:23.818Z,102523.44
2023-02-28T02:05:51.535Z,102516.84
2023-02-28T02:08:23.752Z,102517.25
2023-02-28T02:10:57.077Z,102519.47
2023-02-28T02:13:46.040Z,102515.81
2023-02-28T02:16:25.430Z,102510.56
2023-02-28T02:18:56.254Z,102502.88
2023-02-28T02:22:01.857Z,102508.38
2023-02-28T02:25:00.772Z,102504.00
2023-02-28T02:27:54.516Z,102499.34
2023-02-28T02:30:44.860Z,102500.56
2023-02-28T02:33:38.172Z,102500.78
2023-02-28T02:36:11.717Z,102498.09
2023-02-28T02:38:47.980Z,102492.66
2023-02-28T02:41:21.027Z,102502.50
2023-02-28T02:43:52.961Z,102501.72
2023-02-28T02:46:26.066Z,102499.06
2023-02-28T02:48:57.137Z,102507.16
2023-02-28T02:51:30.274Z,102499.25
2023-02-28T02:54:02.899Z,102510.97
2023-02-28T02:56:33.448Z,102508.00
2023-02-28T02:59:04.778Z,102503.81
2023-02-28T03:01:36.840Z,102512.50
2023-02-28T03:04:07.909Z,102502.66
2023-02-28T03:06:37.081Z,102512.97
2023-02-28T03:09:05.415Z,102512.41
2023-02-28T03:11:34.602Z,102505.25
2023-02-28T03:14:37.837Z,102504.59
2023-02-28T03:17:21.919Z,102507.47
2023-02-28T03:19:58.433Z,102497.63
2023-02-28T03:22:41.020Z,102502.66
2023-02-28T03:25:13.440Z,102503.72
2023-02-28T03:27:44.287Z,102504.28
2023-02-28T03:30:18.824Z,102497.03
2023-02-28T03:32:54.894Z,102493.78
2023-02-28T03:35:26.741Z,102493.69
2023-02-28T03:38:03.160Z,102492.72
2023-02-28T03:40:35.223Z,102498.75
2023-02-28T03:43:12.591Z,102491.50
2023-02-28T03:45:43.703Z,102494.09
2023-02-28T03:48:15.491Z,102490.38
2023-02-28T03:50:46.651Z,102494.84
2023-02-28T03:53:21.106Z,102496.38
2023-02-28T03:55:51.985Z,102491.91
2023-02-28T03:58:25.955Z,102493.53
2023-02-28T04:00:59.595Z,102502.59
2023-02-28T04:03:29.466Z,102494.47
2023-02-28T04:05:59.075Z,102497.41
2023-02-28T04:08:28.021Z,102497.50
2023-02-28T04:11:02.749Z,102502.09
2023-02-28T04:13:30.422Z,102502.38
2023-02-28T04:15:58.352Z,102501.78
2023-02-28T04:18:26.307Z,102503.59
2023-02-28T04:20:53.913Z,102504.63
2023-02-28T04:23:21.510Z,102507.13
2023-02-28T04:25:52.248Z,102501.03
2023-02-28T04:28:19.942Z,102502.66
2023-02-28T04:30:47.799Z,102506.16
2023-02-28T04:33:15.745Z,102506.63
2023-02-28T04:35:43.416Z,102509.28
2023-02-28T04:38:11.173Z,102509.41
2023-02-28T04:40:39.177Z,102504.16
2023-02-28T04:43:08.250Z,102506.22
2023-02-28T04:45:37.374Z,102508.41
2023-02-28T04:48:05.126Z,102510.50
2023-02-28T04:50:32.796Z,102510.75
2023-02-28T04:53:01.586Z,102519.72
2023-02-28T04:55:29.288Z,102516.06
2023-02-28T04:57:56.971Z,102514.53
2023-02-28T05:00:26.277Z,102515.53
2023-02-28T05:02:53.968Z,102515.69
2023-02-28T05:05:22.626Z,102512.50
2023-02-28T05:07:50.442Z,102512.59
2023-02-28T05:10:18.754Z,102515.47
2023-02-28T05:12:46.477Z,102516.50
2023-02-28T05:15:15.610Z,102511.25
2023-02-28T05:17:45.389Z,102511.50
2023-02-28T05:20:15.985Z,102512.28
2023-02-28T05:22:47.645Z,102516.00
2023-02-28T05:25:18.863Z,102517.88
2023-02-28T05:27:46.562Z,102516.06
2023-02-28T05:30:15.000Z,102516.94
2023-02-28T05:32:44.514Z,102516.44
2023-02-28T05:35:13.051Z,102514.78
2023-02-28T05:37:41.172Z,102514.78
2023-02-28T05:40:12.160Z,102520.13
2023-02-28T05:42:40.505Z,102531.22
2023-02-28T05:45:10.069Z,102544.53
2023-02-28T05:47:38.982Z,102542.06
2023-02-28T05:50:10.565Z,102547.44
2023-02-28T05:52:41.141Z,102535.94
2023-02-28T05:55:10.250Z,102542.06
2023-02-28T05:57:38.171Z,102544.53
2023-02-28T06:00:07.128Z,102539.03
2023-02-28T06:02:34.869Z,102532.69
2023-02-28T06:05:02.687Z,102530.81
2023-02-28T06:07:31.999Z,102538.59
2023-02-28T06:09:59.655Z,102531.13
2023-02-28T06:12:27.516Z,102538.94
2023-02-28T06:14:55.457Z,102545.75
2023-02-28T06:17:23.156Z,102539.47
2023-02-28T06:19:52.268Z,102540.41
2023-02-28T06:22:19.980Z,102549.16
2023-02-28T06:24:49.330Z,102550.91
2023-02-28T06:27:17.742Z,102554.25
2023-02-28T06:29:48.541Z,102560.34
2023-02-28T06:32:16.920Z,102553.13
2023-02-28T06:34:44.965Z,102554.84
2023-02-28T06:37:12.999Z,102562.66
2023-02-28T06:39:41.098Z,102568.59
2023-02-28T06:42:10.864Z,102566.53
2023-02-28T06:44:40.308Z,102574.19
2023-02-28T06:47:08.549Z,102576.47
2023-02-28T06:49:39.639Z,102567.72
2023-02-28T06:52:14.927Z,102577.34
2023-02-28T06:54:43.018Z,102572.09
2023-02-28T06:57:14.562Z,102578.56
2023-02-28T06:59:42.441Z,102575.13
2023-02-28T07:02:11.735Z,102573.59
2023-02-28T07:04:41.558Z,102576.31
2023-02-28T07:07:09.311Z,102582.19
2023-02-28T07:09:39.970Z,102588.69
2023-02-28T07:12:07.940Z,102591.19
2023-02-28T07:14:38.295Z,102587.50
2023-02-28T07:17:06.202Z,102588.16
2023-02-28T07:19:34.172Z,102586.09
2023-02-28T07:22:03.783Z,102588.41
2023-02-28T07:24:31.951Z,102594.22
2023-02-28T07:27:01.794Z,102595.06
2023-02-28T07:29:29.624Z,102591.13
2023-02-28T07:31:58.914Z,102598.94
2023-02-28T07:34:29.175Z,102600.66
2023-02-28T07:36:57.588Z,102606.38
2023-02-28T07:39:25.445Z,102594.47
2023-02-28T07:41:53.109Z,102600.25
2023-02-28T07:44:21.948Z,102610.63
2023-02-28T07:46:51.119Z,102607.97
2023-02-28T07:49:21.705Z,102604.16
2023-02-28T07:51:52.442Z,102604.25
2023-02-28T07:54:20.297Z,102607.31
2023-02-28T07:56:48.009Z,102602.63
2023-02-28T07:59:16.403Z,102599.13
2023-02-28T08:01:45.612Z,102596.16
2023-02-28T08:04:13.384Z,102598.16
2023-02-28T08:06:42.685Z,102590.44
2023-02-28T08:09:10.776Z,102591.66
2023-02-28T08:11:38.490Z,102593.75
2023-02-28T08:14:06.824Z,102587.56
2023-02-28T08:16:34.591Z,102580.50
2023-02-28T08:19:05.199Z,102588.34
2023-02-28T08:21:33.894Z,102599.69
2023-02-28T08:24:03.082Z,102601.50
2023-02-28T08:26:30.850Z,102601.72
2023-02-28T08:29:00.420Z,102593.38
2023-02-28T08:31:29.704Z,102599.88
2023-02-28T08:33:59.774Z,102602.19
2023-02-28T08:36:29.545Z,102599.97
2023-02-28T08:38:58.914Z,102603.59
2023-02-28T08:41:28.838Z,102605.00
2023-02-28T08:43:58.102Z,102604.88
2023-02-28T08:46:25.979Z,102593.78
2023-02-28T08:48:54.599Z,102600.13
2023-02-28T08:51:27.381Z,102599.22
2023-02-28T08:53:56.594Z,102597.34
2023-02-28T08:56:25.714Z,102601.59
2023-02-28T08:58:58.928Z,102607.41
2023-02-28T09:01:29.502Z,102601.97
2023-02-28T09:03:58.549Z,102599.97
2023-02-28T09:06:29.357Z,102605.47
2023-02-28T09:09:00.328Z,102609.13
2023-02-28T09:11:28.274Z,102597.19
2023-02-28T09:13:57.503Z,102603.41
2023-02-28T09:16:25.502Z,102608.13
2023-02-28T09:18:53.211Z,102606.22
2023-02-28T09:21:21.295Z,102603.31
2023-02-28T09:23:51.094Z,102606.66
2023-02-28T09:26:20.442Z,102602.16
2023-02-28T09:28:50.045Z,102600.34
2023-02-28T09:31:23.123Z,102604.50
2023-02-28T09:33:52.464Z,102599.78
2023-02-28T09:36:22.097Z,102605.56
2023-02-28T09:38:52.393Z,102599.78
2023-02-28T09:41:22.863Z,102606.19
2023-02-28T09:43:54.591Z,102608.16
2023-02-28T09:46:33.447Z,102604.09
2023-02-28T09:49:04.013Z,102610.72
2023-02-28T09:51:52.377Z,102607.50
2023-02-28T09:54:23.076Z,102609.88
2023-02-28T09:56:54.183Z,102607.31
2023-02-28T09:59:38.762Z,102605.88
2023-02-28T10:02:20.632Z,102607.06
2023-02-28T10:04:56.080Z,102606.75
2023-02-28T10:07:40.605Z,102603.66
2023-02-28T10:10:21.659Z,102600.88
2023-02-28T10:12:53.015Z,102599.47
2023-02-28T10:15:28.331Z,102602.56
2023-02-28T10:18:08.806Z,102594.22
2023-02-28T10:20:39.475Z,102595.69
2023-02-28T10:23:14.872Z,102601.13
2023-02-28T10:25:48.974Z,102592.22
2023-02-28T10:28:18.829Z,102591.66
2023-02-28T10:30:49.434Z,102585.31
2023-02-28T10:33:25.180Z,102587.72
2023-02-28T10:35:53.589Z,102599.06
2023-02-28T10:38:23.760Z,102591.00
2023-02-28T10:40:52.466Z,102595.06
2023-02-28T10:43:25.565Z,102590.78
2023-02-28T10:46:03.855Z,102591.56
2023-02-28T10:48:36.046Z,102588.19
2023-02-28T10:51:05.475Z,102595.06
2023-02-28T10:53:59.228Z,102591.34
2023-02-28T10:56:27.628Z,102592.00
2023-02-28T10:59:00.574Z,102586.22
2023-02-28T11:01:38.896Z,102589.78
2023-02-28T11:04:20.256Z,102592.38
2023-02-28T11:06:48.873Z,102589.25
2023-02-28T11:09:25.021Z,102581.94
2023-02-28T11:11:53.520Z,102577.03
2023-02-28T11:14:24.002Z,102575.50
2023-02-28T11:16:53.194Z,102568.09
2023-02-28T11:19:27.050Z,102578.00
2023-02-28T11:21:59.029Z,102565.72
2023-02-28T11:24:29.353Z,102570.88
2023-02-28T11:26:58.159Z,102567.97
2023-02-28T11:29:29.385Z,102570.72
2023-02-28T11:32:05.687Z,102564.56
2023-02-28T11:34:35.850Z,102555.44
2023-02-28T11:37:05.835Z,102557.47
2023-02-28T11:39:34.823Z,102552.00
2023-02-28T11:42:34.183Z,102548.69
2023-02-28T11:45:16.180Z,102549.66
2023-02-28T11:47:49.489Z,102549.00
2023-02-28T11:50:29.308Z,102551.75
2023-02-28T11:53:01.477Z,102548.88
2023-02-28T11:55:35.574Z,102547.38
2023-02-28T11:58:34.098Z,102547.78
2023-02-28T12:01:16.957Z,102546.13
2023-02-28T12:03:50.266Z,102542.38
2023-02-28T12:06:25.709Z,102540.19
2023-02-28T12:09:04.214Z,102547.69
2023-02-28T12:11:44.693Z,102542.31
2023-02-28T12:14:34.793Z,102543.56
2023-02-28T12:17:14.450Z,102538.16
2023-02-28T12:19:49.494Z,102530.88
2023-02-28T12:22:31.158Z,102530.94
2023-02-28T12:25:23.101Z,102525.69
2023-02-28T12:27:54.025Z,102529.38
2023-02-28T12:30:26.425Z,102531.19
2023-02-28T12:32:58.598Z,102521.53
2023-02-28T12:35:34.240Z,102515.97
2023-02-28T12:38:07.683Z,102524.97
2023-02-28T12:40:45.342Z,102517.91
2023-02-28T12:43:15.458Z,102526.66
2023-02-28T12:45:49.665Z,102516.53
2023-02-28T12:48:23.630Z,102506.16
2023-02-28T12:50:51.909Z,102507.63
2023-02-28T12:53:27.995Z,102519.59
2023-02-28T12:56:10.362Z,102507.66
2023-02-28T12:58:42.029Z,102493.78
2023-02-28T13:01:38.204Z,102490.91
2023-02-28T13:04:29.420Z,102486.03
2023-02-28T13:07:14.799Z,102483.06
2023-02-28T13:09:54.582Z,102457.78
2023-02-28T13:12:23.788Z,102458.47
2023-02-28T13:14:52.594Z,102457.72
2023-02-28T13:17:22.382Z,102456.91
2023-02-28T13:19:59.573Z,102459.75
2023-02-28T13:22:40.935Z,102459.16
2023-02-28T13:25:54.266Z,102449.66
2023-02-28T13:29:00.776Z,102456.81
2023-02-28T13:31:29.648Z,102456.47
2023-02-28T13:34:14.239Z,102448.31
2023-02-28T13:36:44.545Z,102461.28
2023-02-28T13:39:47.955Z,102453.66
2023-02-28T13:42:37.049Z,102442.41
2023-02-28T13:45:27.891Z,102447.50
2023-02-28T13:47:58.021Z,102441.41
2023-02-28T13:50:32.364Z,102437.75
2023-02-28T13:53:32.211Z,102433.72
2023-02-28T13:56:05.967Z,102439.28
2023-02-28T13:58:45.939Z,102430.44
2023-02-28T14:01:26.410Z,102432.19
2023-02-28T14:04:40.934Z,102437.72
2023-02-28T14:07:10.386Z,102440.06
2023-02-28T14:09:42.837Z,102444.66
2023-02-28T14:12:44.551Z,102440.59
2023-02-28T14:15:29.375Z,102443.59
2023-02-28T14:18:00.481Z,102443.22
2023-02-28T14:20:31.554Z,102435.06
2023-02-28T14:23:08.803Z,102448.00
2023-02-28T14:25:42.205Z,102436.06
2023-02-28T14:28:21.791Z,102442.28
2023-02-28T14:30:59.461Z,102440.06
2023-02-28T14:33:44.232Z,102436.03
2023-02-28T14:36:19.237Z,102437.16
2023-02-28T14:38:49.368Z,102438.88
2023-02-28T14:41:22.151Z,102442.97
2023-02-28T14:43:52.787Z,102444.94
2023-02-28T14:46:21.968Z,102436.75
2023-02-28T14:48:52.617Z,102439.84
2023-02-28T14:51:22.470Z,102439.34
2023-02-28T14:53:54.175Z,102446.06
2023-02-28T14:56:25.946Z,102430.31
2023-02-28T14:58:55.454Z,102433.09
2023-02-28T15:01:25.296Z,102441.78
2023-02-28T15:04:02.341Z,102439.81
2023-02-28T15:06:30.815Z,102436.16
2023-02-28T15:09:13.320Z,102446.16
2023-02-28T15:11:41.686Z,102438.75
2023-02-28T15:14:17.022Z,102445.31
2023-02-28T15:16:48.211Z,102435.94
2023-02-28T15:19:23.962Z,102431.28
2023-02-28T15:21:56.180Z,102428.59
2023-02-28T15:24:31.309Z,102426.03
2023-02-28T15:27:01.904Z,102435.03
2023-02-28T15:29:32.072Z,102433.69
2023-02-28T15:32:03.863Z,102436.03
2023-02-28T15:34:42.861Z,102430.16
2023-02-28T15:37:31.043Z,102435.63
2023-02-28T15:40:00.358Z,102433.81
2023-02-28T15:42:32.600Z,102432.94
2023-02-28T15:45:01.814Z,102430.75
2023-02-28T15:47:32.182Z,102436.13
2023-02-28T15:50:04.957Z,102432.84
2023-02-28T15:52:41.697Z,102431.50
2023-02-28T15:55:13.611Z,102431.63
2023-02-28T15:57:42.463Z,102432.00
2023-02-28T16:00:14.847Z,102440.28
2023-02-28T16:02:43.628Z,102430.91
2023-02-28T16:05:28.954Z,102429.69
2023-02-28T16:07:57.956Z,102435.41
2023-02-28T16:10:28.779Z,102441.38
2023-02-28T16:12:58.704Z,102443.34
2023-02-28T16:15:29.110Z,102441.28
2023-02-28T16:17:58.460Z,102433.81
2023-02-28T16:20:29.662Z,102433.69
2023-02-28T16:22:57.750Z,102436.03
2023-02-28T16:25:31.562Z,102440.06
2023-02-28T16:28:01.665Z,102436.38
2023-02-28T16:30:32.389Z,102437.50
2023-02-28T16:33:02.496Z,102448.13
2023-02-28T16:35:36.348Z,102445.78
2023-02-28T16:38:05.976Z,102445.78
2023-02-28T16:40:38.829Z,102450.91
2023-02-28T16:43:10.347Z,102454.09
2023-02-28T16:45:42.476Z,102446.50
2023-02-28T16:48:15.806Z,102447.59
2023-02-28T16:50:45.392Z,102444.19
2023-02-28T16:53:14.475Z,102448.47
2023-02-28T16:55:42.534Z,102452.63
2023-02-28T16:58:16.372Z,102452.75
2023-02-28T17:00:44.490Z,102448.34
2023-02-28T17:03:31.943Z,102453.09
2023-02-28T17:06:02.352Z,102457.00
2023-02-28T17:08:30.782Z,102457.50
2023-02-28T17:10:58.738Z,102449.44
2023-02-28T17:13:26.539Z,102454.38
2023-02-28T17:15:54.274Z,102456.19
2023-02-28T17:18:22.994Z,102454.34
2023-02-28T17:20:51.183Z,102456.66
2023-02-28T17:23:20.164Z,102462.91
2023-02-28T17:25:56.404Z,102463.63
2023-02-28T17:28:26.573Z,102464.34
2023-02-28T17:30:54.447Z,102462.41
2023-02-28T17:33:22.085Z,102473.13
2023-02-28T17:35:49.921Z,102481.19
2023-02-28T17:38:24.027Z,102481.91
2023-02-28T17:40:57.853Z,102474.94
2023-02-28T17:43:26.036Z,102479.69
2023-02-28T17:45:54.030Z,102474.44
2023-02-28T17:48:21.817Z,102475.53
2023-02-28T17:50:49.504Z,102474.81
2023-02-28T17:53:17.224Z,102480.91
2023-02-28T17:55:46.177Z,102485.44
2023-02-28T17:58:14.329Z,102487.25
2023-02-28T18:00:42.069Z,102483.72
2023-02-28T18:03:10.674Z,102483.72
2023-02-28T18:05:38.570Z,102487.50
2023-02-28T18:08:06.493Z,102482.25
2023-02-28T18:10:34.380Z,102485.69
2023-02-28T18:13:04.610Z,102490.94
2023-02-28T18:15:32.269Z,102488.47
2023-02-28T18:18:00.150Z,102492.34
2023-02-28T18:20:29.136Z,102494.31
2023-02-28T18:22:56.820Z,102490.88
2023-02-28T18:25:24.567Z,102493.69
2023-02-28T18:27:58.175Z,102495.97
2023-02-28T18:30:30.618Z,102502.78
2023-02-28T18:32:59.051Z,102497.41
2023-02-28T18:35:36.592Z,102500.31
2023-02-28T18:38:08.147Z,102500.31
2023-02-28T18:40:36.810Z,102488.97
2023-02-28T18:43:05.174Z,102493.25
2023-02-28T18:45:37.133Z,102495.94
2023-02-28T18:48:05.992Z,102490.56
2023-02-28T18:50:33.866Z,102493.13
2023-02-28T18:53:03.458Z,102493.25
2023-02-28T18:55:32.631Z,102490.81
2023-02-28T18:58:00.804Z,102491.25
2023-02-28T19:00:28.699Z,102486.97
2023-02-28T19:02:57.803Z,102491.09
2023-02-28T19:05:25.412Z,102483.38
2023-02-28T19:07:53.253Z,102482.13
2023-02-28T19:10:21.285Z,102482.56
2023-02-28T19:12:48.962Z,102484.97
2023-02-28T19:15:16.775Z,102489.94
2023-02-28T19:17:46.126Z,102485.66
2023-02-28T19:20:15.874Z,102483.31
2023-02-28T19:22:44.548Z,102481.81
2023-02-28T19:25:12.709Z,102477.44
2023-02-28T19:27:41.020Z,102484.59
2023-02-28T19:30:10.213Z,102483.66
2023-02-28T19:32:38.198Z,102480.00
2023-02-28T19:35:06.618Z,102482.88
2023-02-28T19:37:38.576Z,102482.81
2023-02-28T19:40:08.677Z,102481.94
2023-02-28T19:42:36.969Z,102482.03
2023-02-28T19:45:05.648Z,102479.13
2023-02-28T19:47:33.278Z,102488.16
2023-02-28T19:50:01.200Z,102482.88
2023-02-28T19:52:28.879Z,102476.56
2023-02-28T19:54:58.829Z,102485.28
2023-02-28T19:57:26.624Z,102490.53
2023-02-28T19:59:54.431Z,102495.03
2023-02-28T20:02:23.122Z,102494.06
2023-02-28T20:04:51.667Z,102496.75
2023-02-28T20:07:21.071Z,102506.53
2023-02-28T20:09:49.575Z,102506.53
2023-02-28T20:12:24.760Z,102509.28
2023-02-28T20:14:56.074Z,102513.28
2023-02-28T20:17:24.839Z,102502.91
2023-02-28T20:19:52.694Z,102511.03
2023-02-28T20:22:20.578Z,102518.09
2023-02-28T20:24:49.297Z,102516.38
2023-02-28T20:27:18.361Z,102518.22
2023-02-28T20:29:46.017Z,102514.88
2023-02-28T20:32:14.234Z,102511.13
2023-02-28T20:34:42.233Z,102516.59
2023-02-28T20:37:10.006Z,102516.84
2023-02-28T20:39:40.218Z,102514.56
2023-02-28T20:42:08.212Z,102516.25
2023-02-28T20:44:39.571Z,102513.91
2023-02-28T20:47:07.220Z,102510.44
2023-02-28T20:49:34.873Z,102504.78
2023-02-28T20:52:03.356Z,102509.09
2023-02-28T20:54:31.226Z,102510.53
2023-02-28T20:56:58.881Z,102509.44
2023-02-28T20:59:26.766Z,102504.75
2023-02-28T21:01:56.881Z,102503.78
2023-02-28T21:04:24.717Z,102507.72
2023-02-28T21:06:53.067Z,102510.84
2023-02-28T21:09:20.950Z,102509.25
2023-02-28T21:11:49.651Z,102517.50
2023-02-28T21:14:18.719Z,102527.25
2023-02-28T21:16:46.858Z,102517.19
2023-02-28T21:19:15.900Z,102512.91
2023-02-28T21:21:44.793Z,102513.84
2023-02-28T21:24:13.293Z,102514.25
2023-02-28T21:26:42.591Z,102516.63
2023-02-28T21:29:10.210Z,102519.09
2023-02-28T21:31:38.328Z,102514.69
2023-02-28T21:34:08.558Z,102517.38
2023-02-28T21:36:40.015Z,102527.47
2023-02-28T21:39:09.624Z,102526.69
2023-02-28T21:41:37.587Z,102520.81
2023-02-28T21:44:06.545Z,102520.06
2023-02-28T21:46:35.116Z,102523.06
2023-02-28T21:49:02.840Z,102516.09
2023-02-28T21:51:32.069Z,102514.47
2023-02-28T21:54:01.870Z,102519.41
2023-02-28T21:56:32.109Z,102521.41
2023-02-28T21:59:01.213Z,102520.25
2023-02-28T22:01:31.169Z,102513.56
2023-02-28T22:04:00.290Z,102523.38
2023-02-28T22:06:30.226Z,102513.13
2023-02-28T22:09:02.008Z,102518.75
2023-02-28T22:11:30.968Z,102507.09
2023-02-28T22:13:59.857Z,102503.25
2023-02-28T22:16:40.771Z,102505.09
2023-02-28T22:19:16.202Z,102506.22
2023-02-28T22:21:44.881Z,102509.00
2023-02-28T22:24:12.778Z,102499.38
2023-02-28T22:26:41.714Z,102493.41
2023-02-28T22:29:09.385Z,102506.97
2023-02-28T22:31:37.601Z,102502.97
2023-02-28T22:34:09.340Z,102505.75
2023-02-28T22:36:37.511Z,102509.50
2023-02-28T22:39:05.688Z,102514.41
2023-02-28T22:41:33.910Z,102507.44
2023-02-28T22:44:05.027Z,102506.31
2023-02-28T22:46:35.518Z,102505.63
2023-02-28T22:49:05.535Z,102510.63
2023-02-28T22:51:33.565Z,102502.63
2023-02-28T22:54:01.916Z,102517.88
2023-02-28T22:56:31.415Z,102521.31
2023-02-28T22:59:01.027Z,102510.53
2023-02-28T23:01:31.988Z,102498.03
2023-02-28T23:03:59.826Z,102503.38
2023-02-28T23:06:29.877Z,102501.78
2023-02-28T23:08:59.834Z,102501.47
2023-02-28T23:11:30.144Z,102505.84
2023-02-28T23:14:01.102Z,102513.09
2023-02-28T23:16:32.570Z,102516.19
2023-02-28T23:19:02.211Z,102512.28
2023-02-28T23:21:30.458Z,102514.75
2023-02-28T23:23:58.473Z,102518.69
2023-02-28T23:26:26.108Z,102518.91
2023-02-28T23:28:54.168Z,102518.13
2023-02-28T23:31:22.246Z,102515.06
2023-02-28T23:33:51.281Z,102526.59
2023-02-28T23:36:18.924Z,102524.72
2023-02-28T23:38:49.213Z,102524.81
2023-02-28T23:41:17.763Z,102525.66
2023-02-28T23:43:46.011Z,102525.75
2023-02-28T23:46:14.908Z,102512.59
2023-02-28T23:48:43.554Z,102518.69
2023-02-28T23:51:16.609Z,102518.91
2023-02-28T23:53:46.796Z,102519.56
2023-02-28T23:56:17.032Z,102526.91
2023-02-28T23:58:45.905Z,102517.06
